sensor_id;sensor_type;location;lat;lon;timestamp;P1;durP1;ratioP1;P2;durP2;ratioP2
72379;SDS011;60354;47.798;12.472;2022-12-07T00:01:19;7.68;;;5.38;;
72379;SDS011;60354;47.798;12.472;2022-12-07T00:03:48;9.60;;;5.88;;
72379;SDS011;60354;47.798;12.472;2022-12-07T00:06:16;9.52;;;5.80;;
72379;SDS011;60354;47.798;12.472;2022-12-07T00:08:42;9.77;;;6.13;;
72379;SDS011;60354;47.798;12.472;2022-12-07T00:11:11;8.23;;;5.50;;
72379;SDS011;60354;47.798;12.472;2022-12-07T00:13:39;8.80;;;5.72;;
72379;SDS011;60354;47.798;12.472;2022-12-07T00:16:05;8.95;;;5.40;;
72379;SDS011;60354;47.798;12.472;2022-12-07T00:18:31;7.90;;;5.07;;
72379;SDS011;60354;47.798;12.472;2022-12-07T00:21:04;7.63;;;4.60;;
72379;SDS011;60354;47.798;12.472;2022-12-07T00:23:32;8.27;;;4.10;;
72379;SDS011;60354;47.798;12.472;2022-12-07T00:26:05;7.07;;;4.30;;
72379;SDS011;60354;47.798;12.472;2022-12-07T00:28:35;7.90;;;4.35;;
72379;SDS011;60354;47.798;12.472;2022-12-07T00:31:01;7.38;;;4.40;;
72379;SDS011;60354;47.798;12.472;2022-12-07T00:33:29;8.93;;;4.35;;
72379;SDS011;60354;47.798;12.472;2022-12-07T00:35:55;7.57;;;5.15;;
72379;SDS011;60354;47.798;12.472;2022-12-07T00:38:22;8.50;;;4.65;;
72379;SDS011;60354;47.798;12.472;2022-12-07T00:41:21;7.10;;;4.40;;
72379;SDS011;60354;47.798;12.472;2022-12-07T00:43:43;8.10;;;4.63;;
72379;SDS011;60354;47.798;12.472;2022-12-07T00:46:11;7.97;;;4.72;;
72379;SDS011;60354;47.798;12.472;2022-12-07T00:48:37;7.85;;;5.53;;
72379;SDS011;60354;47.798;12.472;2022-12-07T00:51:03;8.35;;;5.18;;
72379;SDS011;60354;47.798;12.472;2022-12-07T00:53:29;8.38;;;4.85;;
72379;SDS011;60354;47.798;12.472;2022-12-07T00:55:55;8.73;;;5.85;;
72379;SDS011;60354;47.798;12.472;2022-12-07T00:58:21;8.10;;;5.53;;
72379;SDS011;60354;47.798;12.472;2022-12-07T01:00:48;10.10;;;6.28;;
72379;SDS011;60354;47.798;12.472;2022-12-07T01:03:15;9.73;;;6.97;;
72379;SDS011;60354;47.798;12.472;2022-12-07T01:05:49;13.55;;;7.70;;
72379;SDS011;60354;47.798;12.472;2022-12-07T01:08:16;12.43;;;7.55;;
72379;SDS011;60354;47.798;12.472;2022-12-07T01:10:41;15.48;;;7.82;;
72379;SDS011;60354;47.798;12.472;2022-12-07T01:13:07;14.45;;;8.45;;
72379;SDS011;60354;47.798;12.472;2022-12-07T01:15:32;13.80;;;8.32;;
72379;SDS011;60354;47.798;12.472;2022-12-07T01:17:57;15.35;;;9.65;;
72379;SDS011;60354;47.798;12.472;2022-12-07T01:20:23;14.52;;;8.90;;
72379;SDS011;60354;47.798;12.472;2022-12-07T01:22:48;17.08;;;9.27;;
72379;SDS011;60354;47.798;12.472;2022-12-07T01:25:14;14.50;;;8.70;;
72379;SDS011;60354;47.798;12.472;2022-12-07T01:27:39;15.60;;;9.05;;
72379;SDS011;60354;47.798;12.472;2022-12-07T01:30:05;15.77;;;9.52;;
72379;SDS011;60354;47.798;12.472;2022-12-07T01:32:32;16.17;;;9.27;;
72379;SDS011;60354;47.798;12.472;2022-12-07T01:34:58;16.27;;;9.48;;
72379;SDS011;60354;47.798;12.472;2022-12-07T01:37:23;15.23;;;9.80;;
72379;SDS011;60354;47.798;12.472;2022-12-07T01:39:49;16.70;;;9.60;;
72379;SDS011;60354;47.798;12.472;2022-12-07T01:42:17;14.95;;;9.48;;
72379;SDS011;60354;47.798;12.472;2022-12-07T01:47:43;14.32;;;8.07;;
72379;SDS011;60354;47.798;12.472;2022-12-07T01:50:17;16.65;;;8.93;;
72379;SDS011;60354;47.798;12.472;2022-12-07T01:52:43;16.70;;;9.63;;
72379;SDS011;60354;47.798;12.472;2022-12-07T01:55:12;13.77;;;8.93;;
72379;SDS011;60354;47.798;12.472;2022-12-07T01:57:40;18.17;;;9.60;;
72379;SDS011;60354;47.798;12.472;2022-12-07T02:00:08;16.75;;;10.27;;
72379;SDS011;60354;47.798;12.472;2022-12-07T02:05:21;17.50;;;9.75;;
72379;SDS011;60354;47.798;12.472;2022-12-07T02:07:48;18.80;;;10.00;;
72379;SDS011;60354;47.798;12.472;2022-12-07T02:12:43;18.17;;;10.60;;
72379;SDS011;60354;47.798;12.472;2022-12-07T02:15:11;19.77;;;10.85;;
72379;SDS011;60354;47.798;12.472;2022-12-07T02:20:47;18.13;;;10.90;;
72379;SDS011;60354;47.798;12.472;2022-12-07T02:25:55;21.08;;;11.52;;
72379;SDS011;60354;47.798;12.472;2022-12-07T02:30:49;18.83;;;11.00;;
72379;SDS011;60354;47.798;12.472;2022-12-07T02:33:24;17.50;;;10.63;;
72379;SDS011;60354;47.798;12.472;2022-12-07T02:35:55;16.80;;;10.02;;
72379;SDS011;60354;47.798;12.472;2022-12-07T02:38:50;18.20;;;10.85;;
72379;SDS011;60354;47.798;12.472;2022-12-07T02:43:53;17.33;;;10.05;;
72379;SDS011;60354;47.798;12.472;2022-12-07T02:46:23;17.08;;;10.02;;
72379;SDS011;60354;47.798;12.472;2022-12-07T02:48:53;18.77;;;9.95;;
72379;SDS011;60354;47.798;12.472;2022-12-07T02:51:20;15.90;;;10.25;;
72379;SDS011;60354;47.798;12.472;2022-12-07T02:53:46;18.63;;;10.23;;
72379;SDS011;60354;47.798;12.472;2022-12-07T02:56:33;16.17;;;9.93;;
72379;SDS011;60354;47.798;12.472;2022-12-07T03:16:09;16.75;;;9.68;;
72379;SDS011;60354;47.798;12.472;2022-12-07T03:18:46;16.13;;;9.40;;
72379;SDS011;60354;47.798;12.472;2022-12-07T03:21:17;18.63;;;9.68;;
72379;SDS011;60354;47.798;12.472;2022-12-07T03:23:46;16.13;;;9.20;;
72379;SDS011;60354;47.798;12.472;2022-12-07T03:26:16;17.50;;;9.98;;
72379;SDS011;60354;47.798;12.472;2022-12-07T03:28:46;18.73;;;9.90;;
72379;SDS011;60354;47.798;12.472;2022-12-07T03:31:20;15.65;;;10.18;;
72379;SDS011;60354;47.798;12.472;2022-12-07T03:36:53;14.98;;;9.70;;
72379;SDS011;60354;47.798;12.472;2022-12-07T03:39:39;16.88;;;10.13;;
72379;SDS011;60354;47.798;12.472;2022-12-07T03:42:12;17.23;;;10.27;;
72379;SDS011;60354;47.798;12.472;2022-12-07T03:44:37;17.35;;;10.15;;
72379;SDS011;60354;47.798;12.472;2022-12-07T03:54:57;15.10;;;9.65;;
72379;SDS011;60354;47.798;12.472;2022-12-07T03:57:27;17.30;;;10.25;;
72379;SDS011;60354;47.798;12.472;2022-12-07T03:59:55;18.35;;;10.40;;
72379;SDS011;60354;47.798;12.472;2022-12-07T04:02:23;21.48;;;10.13;;
72379;SDS011;60354;47.798;12.472;2022-12-07T04:04:50;16.95;;;9.80;;
72379;SDS011;60354;47.798;12.472;2022-12-07T04:07:16;16.52;;;9.65;;
72379;SDS011;60354;47.798;12.472;2022-12-07T04:09:41;18.80;;;9.88;;
72379;SDS011;60354;47.798;12.472;2022-12-07T04:12:07;17.05;;;9.85;;
72379;SDS011;60354;47.798;12.472;2022-12-07T04:14:32;17.40;;;9.88;;
72379;SDS011;60354;47.798;12.472;2022-12-07T04:16:58;17.23;;;9.88;;
72379;SDS011;60354;47.798;12.472;2022-12-07T04:19:28;17.95;;;10.30;;
72379;SDS011;60354;47.798;12.472;2022-12-07T04:21:55;18.17;;;10.27;;
72379;SDS011;60354;47.798;12.472;2022-12-07T04:24:22;18.20;;;10.55;;
72379;SDS011;60354;47.798;12.472;2022-12-07T04:26:47;19.17;;;11.05;;
72379;SDS011;60354;47.798;12.472;2022-12-07T04:29:13;18.00;;;10.13;;
72379;SDS011;60354;47.798;12.472;2022-12-07T04:31:39;18.35;;;10.75;;
72379;SDS011;60354;47.798;12.472;2022-12-07T04:34:05;18.40;;;10.50;;
72379;SDS011;60354;47.798;12.472;2022-12-07T04:36:32;21.15;;;11.13;;
72379;SDS011;60354;47.798;12.472;2022-12-07T04:38:57;18.83;;;10.73;;
72379;SDS011;60354;47.798;12.472;2022-12-07T04:41:23;16.45;;;9.80;;
72379;SDS011;60354;47.798;12.472;2022-12-07T04:44:01;16.15;;;9.63;;
72379;SDS011;60354;47.798;12.472;2022-12-07T04:46:29;16.70;;;9.52;;
72379;SDS011;60354;47.798;12.472;2022-12-07T04:48:56;16.70;;;10.00;;
72379;SDS011;60354;47.798;12.472;2022-12-07T04:51:24;16.20;;;9.52;;
72379;SDS011;60354;47.798;12.472;2022-12-07T04:53:51;14.70;;;8.60;;
72379;SDS011;60354;47.798;12.472;2022-12-07T04:56:17;18.50;;;9.70;;
72379;SDS011;60354;47.798;12.472;2022-12-07T04:58:43;15.68;;;9.48;;
72379;SDS011;60354;47.798;12.472;2022-12-07T05:01:10;17.15;;;9.77;;
72379;SDS011;60354;47.798;12.472;2022-12-07T05:03:36;15.63;;;8.85;;
72379;SDS011;60354;47.798;12.472;2022-12-07T05:06:02;15.50;;;9.13;;
72379;SDS011;60354;47.798;12.472;2022-12-07T05:08:28;14.25;;;9.18;;
72379;SDS011;60354;47.798;12.472;2022-12-07T05:10:53;15.27;;;9.30;;
72379;SDS011;60354;47.798;12.472;2022-12-07T05:13:19;15.93;;;9.20;;
72379;SDS011;60354;47.798;12.472;2022-12-07T05:15:46;15.85;;;9.35;;
72379;SDS011;60354;47.798;12.472;2022-12-07T05:18:12;17.08;;;9.88;;
72379;SDS011;60354;47.798;12.472;2022-12-07T05:20:38;15.20;;;8.98;;
72379;SDS011;60354;47.798;12.472;2022-12-07T05:23:04;17.60;;;9.05;;
72379;SDS011;60354;47.798;12.472;2022-12-07T05:25:30;15.68;;;9.60;;
72379;SDS011;60354;47.798;12.472;2022-12-07T05:27:56;16.70;;;10.20;;
72379;SDS011;60354;47.798;12.472;2022-12-07T05:30:22;15.50;;;9.35;;
72379;SDS011;60354;47.798;12.472;2022-12-07T05:32:48;15.13;;;8.90;;
72379;SDS011;60354;47.798;12.472;2022-12-07T05:35:13;15.63;;;10.10;;
72379;SDS011;60354;47.798;12.472;2022-12-07T05:37:39;17.27;;;9.63;;
72379;SDS011;60354;47.798;12.472;2022-12-07T05:40:04;15.23;;;9.32;;
72379;SDS011;60354;47.798;12.472;2022-12-07T05:42:30;14.68;;;8.60;;
72379;SDS011;60354;47.798;12.472;2022-12-07T05:44:56;14.02;;;8.95;;
72379;SDS011;60354;47.798;12.472;2022-12-07T05:47:21;14.98;;;9.30;;
72379;SDS011;60354;47.798;12.472;2022-12-07T05:49:47;15.50;;;9.23;;
72379;SDS011;60354;47.798;12.472;2022-12-07T05:52:12;13.90;;;8.05;;
72379;SDS011;60354;47.798;12.472;2022-12-07T05:54:38;15.85;;;9.48;;
72379;SDS011;60354;47.798;12.472;2022-12-07T05:57:03;19.83;;;9.40;;
72379;SDS011;60354;47.798;12.472;2022-12-07T05:59:29;15.30;;;9.38;;
72379;SDS011;60354;47.798;12.472;2022-12-07T06:01:55;14.95;;;9.45;;
72379;SDS011;60354;47.798;12.472;2022-12-07T06:04:23;18.30;;;9.80;;
72379;SDS011;60354;47.798;12.472;2022-12-07T06:06:54;15.88;;;9.60;;
72379;SDS011;60354;47.798;12.472;2022-12-07T06:09:20;15.75;;;9.20;;
72379;SDS011;60354;47.798;12.472;2022-12-07T06:11:46;17.20;;;10.00;;
72379;SDS011;60354;47.798;12.472;2022-12-07T06:14:30;16.13;;;9.13;;
72379;SDS011;60354;47.798;12.472;2022-12-07T06:16:56;18.15;;;10.32;;
72379;SDS011;60354;47.798;12.472;2022-12-07T06:19:22;14.23;;;9.13;;
72379;SDS011;60354;47.798;12.472;2022-12-07T06:21:47;17.70;;;9.38;;
72379;SDS011;60354;47.798;12.472;2022-12-07T06:24:13;16.05;;;9.95;;
72379;SDS011;60354;47.798;12.472;2022-12-07T06:26:40;15.40;;;9.18;;
72379;SDS011;60354;47.798;12.472;2022-12-07T06:29:06;15.38;;;9.55;;
72379;SDS011;60354;47.798;12.472;2022-12-07T06:31:32;16.05;;;9.23;;
72379;SDS011;60354;47.798;12.472;2022-12-07T06:34:00;15.73;;;9.23;;
72379;SDS011;60354;47.798;12.472;2022-12-07T06:36:27;16.25;;;10.20;;
72379;SDS011;60354;47.798;12.472;2022-12-07T06:38:53;13.88;;;8.27;;
72379;SDS011;60354;47.798;12.472;2022-12-07T06:41:19;15.32;;;9.43;;
72379;SDS011;60354;47.798;12.472;2022-12-07T06:43:45;14.15;;;8.57;;
72379;SDS011;60354;47.798;12.472;2022-12-07T06:46:10;14.55;;;8.85;;
72379;SDS011;60354;47.798;12.472;2022-12-07T06:48:36;14.70;;;9.05;;
72379;SDS011;60354;47.798;12.472;2022-12-07T06:51:01;14.25;;;8.40;;
72379;SDS011;60354;47.798;12.472;2022-12-07T06:53:27;15.20;;;9.13;;
72379;SDS011;60354;47.798;12.472;2022-12-07T06:55:52;17.70;;;9.27;;
72379;SDS011;60354;47.798;12.472;2022-12-07T06:58:18;15.70;;;9.43;;
72379;SDS011;60354;47.798;12.472;2022-12-07T07:00:44;15.85;;;8.77;;
72379;SDS011;60354;47.798;12.472;2022-12-07T07:03:10;14.00;;;8.27;;
72379;SDS011;60354;47.798;12.472;2022-12-07T07:05:35;18.15;;;9.63;;
72379;SDS011;60354;47.798;12.472;2022-12-07T07:08:01;14.75;;;9.00;;
72379;SDS011;60354;47.798;12.472;2022-12-07T07:10:27;14.25;;;9.10;;
72379;SDS011;60354;47.798;12.472;2022-12-07T07:12:53;17.52;;;9.50;;
72379;SDS011;60354;47.798;12.472;2022-12-07T07:15:18;14.02;;;8.95;;
72379;SDS011;60354;47.798;12.472;2022-12-07T07:17:44;15.52;;;9.65;;
72379;SDS011;60354;47.798;12.472;2022-12-07T07:20:09;17.25;;;9.50;;
72379;SDS011;60354;47.798;12.472;2022-12-07T07:22:35;14.98;;;9.52;;
72379;SDS011;60354;47.798;12.472;2022-12-07T07:25:01;17.08;;;9.52;;
72379;SDS011;60354;47.798;12.472;2022-12-07T07:27:26;15.77;;;9.70;;
72379;SDS011;60354;47.798;12.472;2022-12-07T07:29:52;15.98;;;9.43;;
72379;SDS011;60354;47.798;12.472;2022-12-07T07:32:17;15.73;;;9.43;;
72379;SDS011;60354;47.798;12.472;2022-12-07T07:34:43;16.73;;;10.07;;
72379;SDS011;60354;47.798;12.472;2022-12-07T07:37:08;14.90;;;8.93;;
72379;SDS011;60354;47.798;12.472;2022-12-07T07:39:36;14.25;;;9.57;;
72379;SDS011;60354;47.798;12.472;2022-12-07T07:42:01;19.20;;;9.98;;
72379;SDS011;60354;47.798;12.472;2022-12-07T07:44:26;17.08;;;10.00;;
72379;SDS011;60354;47.798;12.472;2022-12-07T07:46:52;18.67;;;10.25;;
72379;SDS011;60354;47.798;12.472;2022-12-07T07:49:17;17.95;;;10.30;;
72379;SDS011;60354;47.798;12.472;2022-12-07T07:51:43;17.15;;;9.90;;
72379;SDS011;60354;47.798;12.472;2022-12-07T07:54:09;18.60;;;10.10;;
72379;SDS011;60354;47.798;12.472;2022-12-07T07:56:35;17.05;;;9.38;;
72379;SDS011;60354;47.798;12.472;2022-12-07T07:59:00;21.67;;;9.93;;
72379;SDS011;60354;47.798;12.472;2022-12-07T08:01:25;18.77;;;10.13;;
72379;SDS011;60354;47.798;12.472;2022-12-07T08:03:51;17.48;;;10.65;;
72379;SDS011;60354;47.798;12.472;2022-12-07T08:06:16;18.25;;;10.35;;
72379;SDS011;60354;47.798;12.472;2022-12-07T08:08:42;16.08;;;9.38;;
72379;SDS011;60354;47.798;12.472;2022-12-07T08:11:08;17.50;;;9.98;;
72379;SDS011;60354;47.798;12.472;2022-12-07T08:13:34;12.55;;;7.95;;
72379;SDS011;60354;47.798;12.472;2022-12-07T08:16:03;11.68;;;6.88;;
72379;SDS011;60354;47.798;12.472;2022-12-07T08:18:34;10.32;;;6.53;;
72379;SDS011;60354;47.798;12.472;2022-12-07T08:21:01;9.07;;;5.78;;
72379;SDS011;60354;47.798;12.472;2022-12-07T08:23:27;10.45;;;6.18;;
72379;SDS011;60354;47.798;12.472;2022-12-07T08:25:52;9.98;;;6.22;;
72379;SDS011;60354;47.798;12.472;2022-12-07T08:28:18;9.02;;;5.95;;
72379;SDS011;60354;47.798;12.472;2022-12-07T08:30:43;8.10;;;5.65;;
72379;SDS011;60354;47.798;12.472;2022-12-07T08:33:09;9.88;;;5.93;;
72379;SDS011;60354;47.798;12.472;2022-12-07T08:35:36;12.32;;;6.97;;
72379;SDS011;60354;47.798;12.472;2022-12-07T08:38:02;9.65;;;6.38;;
72379;SDS011;60354;47.798;12.472;2022-12-07T08:40:28;8.77;;;5.47;;
72379;SDS011;60354;47.798;12.472;2022-12-07T08:42:55;9.10;;;5.47;;
72379;SDS011;60354;47.798;12.472;2022-12-07T08:45:20;8.75;;;6.00;;
72379;SDS011;60354;47.798;12.472;2022-12-07T08:47:50;9.65;;;5.30;;
72379;SDS011;60354;47.798;12.472;2022-12-07T08:50:20;9.45;;;5.60;;
72379;SDS011;60354;47.798;12.472;2022-12-07T08:52:50;8.50;;;5.55;;
72379;SDS011;60354;47.798;12.472;2022-12-07T08:55:19;10.70;;;6.17;;
72379;SDS011;60354;47.798;12.472;2022-12-07T08:57:44;11.68;;;5.20;;
72379;SDS011;60354;47.798;12.472;2022-12-07T09:00:10;9.38;;;5.40;;
72379;SDS011;60354;47.798;12.472;2022-12-07T09:02:36;9.13;;;5.45;;
72379;SDS011;60354;47.798;12.472;2022-12-07T09:05:02;9.35;;;6.03;;
72379;SDS011;60354;47.798;12.472;2022-12-07T09:07:28;10.38;;;6.40;;
72379;SDS011;60354;47.798;12.472;2022-12-07T09:09:56;12.38;;;7.70;;
72379;SDS011;60354;47.798;12.472;2022-12-07T09:12:21;11.65;;;7.32;;
72379;SDS011;60354;47.798;12.472;2022-12-07T09:14:47;11.23;;;7.25;;
72379;SDS011;60354;47.798;12.472;2022-12-07T09:17:12;8.60;;;5.03;;
72379;SDS011;60354;47.798;12.472;2022-12-07T09:19:38;9.52;;;4.97;;
72379;SDS011;60354;47.798;12.472;2022-12-07T09:22:06;6.07;;;4.35;;
72379;SDS011;60354;47.798;12.472;2022-12-07T09:24:32;6.25;;;4.22;;
72379;SDS011;60354;47.798;12.472;2022-12-07T09:26:58;11.68;;;5.35;;
72379;SDS011;60354;47.798;12.472;2022-12-07T09:29:23;7.65;;;5.13;;
72379;SDS011;60354;47.798;12.472;2022-12-07T09:31:50;9.07;;;4.75;;
72379;SDS011;60354;47.798;12.472;2022-12-07T09:34:16;7.20;;;4.30;;
72379;SDS011;60354;47.798;12.472;2022-12-07T09:36:41;5.93;;;4.50;;
72379;SDS011;60354;47.798;12.472;2022-12-07T09:39:07;9.25;;;4.88;;
72379;SDS011;60354;47.798;12.472;2022-12-07T09:41:33;5.88;;;4.00;;
72379;SDS011;60354;47.798;12.472;2022-12-07T09:44:05;4.30;;;3.13;;
72379;SDS011;60354;47.798;12.472;2022-12-07T09:46:48;4.18;;;2.60;;
72379;SDS011;60354;47.798;12.472;2022-12-07T09:49:22;5.40;;;3.30;;
72379;SDS011;60354;47.798;12.472;2022-12-07T09:51:59;4.22;;;2.97;;
72379;SDS011;60354;47.798;12.472;2022-12-07T09:54:27;4.50;;;2.53;;
72379;SDS011;60354;47.798;12.472;2022-12-07T09:56:54;7.72;;;4.07;;
72379;SDS011;60354;47.798;12.472;2022-12-07T09:59:20;8.35;;;4.32;;
72379;SDS011;60354;47.798;12.472;2022-12-07T10:01:47;7.40;;;4.75;;
72379;SDS011;60354;47.798;12.472;2022-12-07T10:06:46;3.35;;;2.20;;
72379;SDS011;60354;47.798;12.472;2022-12-07T10:09:13;2.72;;;1.80;;
72379;SDS011;60354;47.798;12.472;2022-12-07T10:12:13;3.25;;;2.00;;
72379;SDS011;60354;47.798;12.472;2022-12-07T10:14:36;6.50;;;3.95;;
72379;SDS011;60354;47.798;12.472;2022-12-07T10:17:37;8.52;;;4.75;;
72379;SDS011;60354;47.798;12.472;2022-12-07T10:22:37;7.85;;;3.90;;
72379;SDS011;60354;47.798;12.472;2022-12-07T10:25:18;6.28;;;4.00;;
72379;SDS011;60354;47.798;12.472;2022-12-07T10:27:44;7.55;;;4.47;;
72379;SDS011;60354;47.798;12.472;2022-12-07T10:30:22;8.73;;;5.28;;
72379;SDS011;60354;47.798;12.472;2022-12-07T10:32:48;7.95;;;4.60;;
72379;SDS011;60354;47.798;12.472;2022-12-07T10:37:49;6.47;;;4.45;;
72379;SDS011;60354;47.798;12.472;2022-12-07T10:40:25;5.90;;;3.97;;
72379;SDS011;60354;47.798;12.472;2022-12-07T10:49:06;6.80;;;3.80;;
72379;SDS011;60354;47.798;12.472;2022-12-07T10:51:45;6.78;;;3.78;;
72379;SDS011;60354;47.798;12.472;2022-12-07T10:55:01;6.85;;;3.92;;
72379;SDS011;60354;47.798;12.472;2022-12-07T11:08:20;8.82;;;4.35;;
72379;SDS011;60354;47.798;12.472;2022-12-07T11:16:19;5.40;;;3.25;;
72379;SDS011;60354;47.798;12.472;2022-12-07T11:21:48;5.80;;;3.45;;
72379;SDS011;60354;47.798;12.472;2022-12-07T11:24:26;7.45;;;3.50;;
72379;SDS011;60354;47.798;12.472;2022-12-07T11:27:00;7.68;;;3.72;;
72379;SDS011;60354;47.798;12.472;2022-12-07T11:32:41;7.70;;;4.20;;
72379;SDS011;60354;47.798;12.472;2022-12-07T11:40:49;9.13;;;3.95;;
72379;SDS011;60354;47.798;12.472;2022-12-07T11:43:26;7.28;;;4.07;;
72379;SDS011;60354;47.798;12.472;2022-12-07T11:46:19;8.57;;;4.22;;
72379;SDS011;60354;47.798;12.472;2022-12-07T11:48:47;8.82;;;4.53;;
72379;SDS011;60354;47.798;12.472;2022-12-07T11:51:32;10.23;;;4.70;;
72379;SDS011;60354;47.798;12.472;2022-12-07T11:57:04;6.45;;;3.40;;
72379;SDS011;60354;47.798;12.472;2022-12-07T11:59:41;5.82;;;3.15;;
72379;SDS011;60354;47.798;12.472;2022-12-07T12:07:06;10.90;;;4.50;;
72379;SDS011;60354;47.798;12.472;2022-12-07T12:09:43;10.38;;;4.80;;
72379;SDS011;60354;47.798;12.472;2022-12-07T12:23:22;5.70;;;3.58;;
72379;SDS011;60354;47.798;12.472;2022-12-07T12:26:02;4.93;;;3.25;;
72379;SDS011;60354;47.798;12.472;2022-12-07T12:33:49;8.00;;;4.35;;
72379;SDS011;60354;47.798;12.472;2022-12-07T12:36:18;7.95;;;4.72;;
72379;SDS011;60354;47.798;12.472;2022-12-07T12:38:50;10.35;;;5.10;;
72379;SDS011;60354;47.798;12.472;2022-12-07T12:46:57;9.80;;;4.72;;
72379;SDS011;60354;47.798;12.472;2022-12-07T12:54:20;4.88;;;2.92;;
72379;SDS011;60354;47.798;12.472;2022-12-07T12:59:39;5.18;;;3.30;;
72379;SDS011;60354;47.798;12.472;2022-12-07T13:10:54;7.10;;;4.28;;
72379;SDS011;60354;47.798;12.472;2022-12-07T13:15:40;9.48;;;5.03;;
72379;SDS011;60354;47.798;12.472;2022-12-07T13:36:56;8.80;;;5.25;;
72379;SDS011;60354;47.798;12.472;2022-12-07T13:39:24;8.88;;;4.93;;
72379;SDS011;60354;47.798;12.472;2022-12-07T13:41:52;6.63;;;4.00;;
72379;SDS011;60354;47.798;12.472;2022-12-07T13:44:19;6.70;;;4.25;;
72379;SDS011;60354;47.798;12.472;2022-12-07T13:47:00;7.57;;;4.78;;
72379;SDS011;60354;47.798;12.472;2022-12-07T13:49:32;6.72;;;3.80;;
72379;SDS011;60354;47.798;12.472;2022-12-07T13:52:14;5.20;;;3.83;;
72379;SDS011;60354;47.798;12.472;2022-12-07T13:54:55;7.70;;;3.80;;
72379;SDS011;60354;47.798;12.472;2022-12-07T13:57:21;6.22;;;4.22;;
72379;SDS011;60354;47.798;12.472;2022-12-07T13:59:49;6.50;;;3.95;;
72379;SDS011;60354;47.798;12.472;2022-12-07T14:02:33;9.73;;;4.75;;
72379;SDS011;60354;47.798;12.472;2022-12-07T14:05:10;7.80;;;4.68;;
72379;SDS011;60354;47.798;12.472;2022-12-07T14:10:27;8.68;;;5.07;;
72379;SDS011;60354;47.798;12.472;2022-12-07T14:12:54;7.93;;;4.65;;
72379;SDS011;60354;47.798;12.472;2022-12-07T14:15:21;16.42;;;9.23;;
72379;SDS011;60354;47.798;12.472;2022-12-07T14:17:52;25.40;;;14.07;;
72379;SDS011;60354;47.798;12.472;2022-12-07T14:23:04;21.17;;;11.68;;
72379;SDS011;60354;47.798;12.472;2022-12-07T14:25:45;14.63;;;8.52;;
72379;SDS011;60354;47.798;12.472;2022-12-07T14:28:31;11.18;;;6.60;;
72379;SDS011;60354;47.798;12.472;2022-12-07T14:30:59;19.42;;;8.32;;
72379;SDS011;60354;47.798;12.472;2022-12-07T14:33:25;10.93;;;5.88;;
72379;SDS011;60354;47.798;12.472;2022-12-07T14:35:51;52.33;;;20.17;;
72379;SDS011;60354;47.798;12.472;2022-12-07T14:38:21;24.10;;;10.63;;
72379;SDS011;60354;47.798;12.472;2022-12-07T14:40:47;11.88;;;6.20;;
72379;SDS011;60354;47.798;12.472;2022-12-07T14:43:15;11.15;;;5.95;;
72379;SDS011;60354;47.798;12.472;2022-12-07T14:45:42;9.75;;;5.22;;
72379;SDS011;60354;47.798;12.472;2022-12-07T14:48:10;16.63;;;6.95;;
72379;SDS011;60354;47.798;12.472;2022-12-07T14:50:37;17.55;;;7.72;;
72379;SDS011;60354;47.798;12.472;2022-12-07T14:53:12;16.30;;;7.00;;
72379;SDS011;60354;47.798;12.472;2022-12-07T14:55:40;19.38;;;7.20;;
72379;SDS011;60354;47.798;12.472;2022-12-07T14:58:05;11.75;;;6.53;;
72379;SDS011;60354;47.798;12.472;2022-12-07T15:00:31;12.43;;;6.68;;
72379;SDS011;60354;47.798;12.472;2022-12-07T15:02:58;9.23;;;5.63;;
72379;SDS011;60354;47.798;12.472;2022-12-07T15:05:23;9.75;;;5.50;;
72379;SDS011;60354;47.798;12.472;2022-12-07T15:07:49;10.98;;;5.93;;
72379;SDS011;60354;47.798;12.472;2022-12-07T15:10:16;9.57;;;5.20;;
72379;SDS011;60354;47.798;12.472;2022-12-07T15:12:44;10.57;;;5.78;;
72379;SDS011;60354;47.798;12.472;2022-12-07T15:15:09;9.45;;;4.82;;
72379;SDS011;60354;47.798;12.472;2022-12-07T15:17:35;6.85;;;4.07;;
72379;SDS011;60354;47.798;12.472;2022-12-07T15:20:00;7.60;;;4.25;;
72379;SDS011;60354;47.798;12.472;2022-12-07T15:22:26;12.00;;;5.82;;
72379;SDS011;60354;47.798;12.472;2022-12-07T15:24:52;10.57;;;5.85;;
72379;SDS011;60354;47.798;12.472;2022-12-07T15:27:17;28.48;;;13.27;;
72379;SDS011;60354;47.798;12.472;2022-12-07T15:29:43;8.52;;;5.45;;
72379;SDS011;60354;47.798;12.472;2022-12-07T15:32:08;10.00;;;5.85;;
72379;SDS011;60354;47.798;12.472;2022-12-07T15:34:34;6.28;;;4.07;;
72379;SDS011;60354;47.798;12.472;2022-12-07T15:36:59;7.20;;;4.13;;
72379;SDS011;60354;47.798;12.472;2022-12-07T15:39:25;7.10;;;4.25;;
72379;SDS011;60354;47.798;12.472;2022-12-07T15:41:50;6.80;;;4.47;;
72379;SDS011;60354;47.798;12.472;2022-12-07T15:44:16;7.30;;;4.43;;
72379;SDS011;60354;47.798;12.472;2022-12-07T15:47:00;5.75;;;3.50;;
72379;SDS011;60354;47.798;12.472;2022-12-07T15:49:26;6.65;;;3.70;;
72379;SDS011;60354;47.798;12.472;2022-12-07T15:51:52;5.13;;;3.63;;
72379;SDS011;60354;47.798;12.472;2022-12-07T15:54:22;6.28;;;3.95;;
72379;SDS011;60354;47.798;12.472;2022-12-07T15:56:49;6.20;;;4.15;;
72379;SDS011;60354;47.798;12.472;2022-12-07T15:59:15;8.23;;;5.03;;
72379;SDS011;60354;47.798;12.472;2022-12-07T16:01:41;12.15;;;6.55;;
72379;SDS011;60354;47.798;12.472;2022-12-07T16:04:07;11.02;;;6.72;;
72379;SDS011;60354;47.798;12.472;2022-12-07T16:06:32;8.50;;;5.47;;
72379;SDS011;60354;47.798;12.472;2022-12-07T16:08:58;9.68;;;6.53;;
72379;SDS011;60354;47.798;12.472;2022-12-07T16:11:23;7.90;;;5.07;;
72379;SDS011;60354;47.798;12.472;2022-12-07T16:13:49;10.73;;;5.90;;
72379;SDS011;60354;47.798;12.472;2022-12-07T16:16:15;9.98;;;6.30;;
72379;SDS011;60354;47.798;12.472;2022-12-07T16:18:44;13.65;;;7.80;;
72379;SDS011;60354;47.798;12.472;2022-12-07T16:21:10;13.02;;;7.97;;
72379;SDS011;60354;47.798;12.472;2022-12-07T16:23:37;12.95;;;8.18;;
72379;SDS011;60354;47.798;12.472;2022-12-07T16:26:10;9.65;;;5.88;;
72379;SDS011;60354;47.798;12.472;2022-12-07T16:28:38;10.82;;;5.97;;
72379;SDS011;60354;47.798;12.472;2022-12-07T16:31:05;9.73;;;5.68;;
72379;SDS011;60354;47.798;12.472;2022-12-07T16:33:36;11.60;;;6.00;;
72379;SDS011;60354;47.798;12.472;2022-12-07T16:36:03;12.52;;;5.90;;
72379;SDS011;60354;47.798;12.472;2022-12-07T16:38:29;8.68;;;5.15;;
72379;SDS011;60354;47.798;12.472;2022-12-07T16:40:55;7.50;;;4.30;;
72379;SDS011;60354;47.798;12.472;2022-12-07T16:43:20;7.15;;;4.30;;
72379;SDS011;60354;47.798;12.472;2022-12-07T16:45:46;6.60;;;3.83;;
72379;SDS011;60354;47.798;12.472;2022-12-07T16:48:13;6.65;;;3.90;;
72379;SDS011;60354;47.798;12.472;2022-12-07T16:50:39;6.10;;;4.25;;
72379;SDS011;60354;47.798;12.472;2022-12-07T16:53:06;7.13;;;4.63;;
72379;SDS011;60354;47.798;12.472;2022-12-07T16:55:34;6.75;;;3.90;;
72379;SDS011;60354;47.798;12.472;2022-12-07T16:58:00;7.28;;;4.65;;
72379;SDS011;60354;47.798;12.472;2022-12-07T17:00:26;6.78;;;4.25;;
72379;SDS011;60354;47.798;12.472;2022-12-07T17:02:51;6.28;;;3.83;;
72379;SDS011;60354;47.798;12.472;2022-12-07T17:05:17;9.85;;;6.20;;
72379;SDS011;60354;47.798;12.472;2022-12-07T17:07:42;9.82;;;5.60;;
72379;SDS011;60354;47.798;12.472;2022-12-07T17:10:08;10.50;;;6.70;;
72379;SDS011;60354;47.798;12.472;2022-12-07T17:12:34;14.68;;;7.15;;
72379;SDS011;60354;47.798;12.472;2022-12-07T17:14:59;8.15;;;5.60;;